Terminal Aerodrome Forecast
Issued by NWS

Current Version | Previous Version | Text Only | Print | Product List | Glossary On
Versions: 1 2 3 4 5 6 7 8 9 10 11 12 13 14 15 16 17 18 19 20 21 22 23 24
000
FTUS41 KOKX 311431 AAA
TAFTEB
TAF AMD
KTEB 311431Z 3115/0112 26008KT P6SM SCT100 BKN250
     FM311900 27011G18KT P6SM FEW100 BKN250
     FM010000 27006KT P6SM SCT250
     FM010400 VRB04KT P6SM FEW050=

USA.gov is the U.S. government's official web portal to all federal, state and local government web resources and services.